sensor_id;sensor_type;location;lat;lon;timestamp;P1;durP1;ratioP1;P2;durP2;ratioP2
65053;SDS011;51639;47.828;35.038;2024-03-02T00:02:00;22.23;;;11.47;;
65053;SDS011;51639;47.828;35.038;2024-03-02T00:17:02;26.27;;;10.00;;
65053;SDS011;51639;47.828;35.038;2024-03-02T00:32:04;24.43;;;10.03;;
65053;SDS011;51639;47.828;35.038;2024-03-02T00:47:18;18.80;;;9.77;;
65053;SDS011;51639;47.828;35.038;2024-03-02T01:02:20;18.97;;;9.30;;
65053;SDS011;51639;47.828;35.038;2024-03-02T01:17:23;16.10;;;8.80;;
65053;SDS011;51639;47.828;35.038;2024-03-02T01:32:25;29.83;;;11.70;;
65053;SDS011;51639;47.828;35.038;2024-03-02T01:47:27;27.10;;;10.67;;
65053;SDS011;51639;47.828;35.038;2024-03-02T02:02:29;25.10;;;10.30;;
65053;SDS011;51639;47.828;35.038;2024-03-02T02:17:31;24.43;;;10.13;;
65053;SDS011;51639;47.828;35.038;2024-03-02T02:32:33;29.87;;;13.57;;
65053;SDS011;51639;47.828;35.038;2024-03-02T02:47:35;21.93;;;12.00;;
65053;SDS011;51639;47.828;35.038;2024-03-02T03:02:37;28.83;;;12.10;;
65053;SDS011;51639;47.828;35.038;2024-03-02T03:17:40;24.40;;;11.77;;
65053;SDS011;51639;47.828;35.038;2024-03-02T03:32:42;24.93;;;12.10;;
65053;SDS011;51639;47.828;35.038;2024-03-02T03:47:44;35.07;;;12.80;;
65053;SDS011;51639;47.828;35.038;2024-03-02T04:02:46;25.77;;;12.20;;
65053;SDS011;51639;47.828;35.038;2024-03-02T04:17:48;39.37;;;11.73;;
65053;SDS011;51639;47.828;35.038;2024-03-02T04:32:51;23.70;;;10.87;;
65053;SDS011;51639;47.828;35.038;2024-03-02T04:47:53;25.43;;;10.80;;
65053;SDS011;51639;47.828;35.038;2024-03-02T05:02:55;33.20;;;12.70;;
65053;SDS011;51639;47.828;35.038;2024-03-02T05:17:57;36.40;;;10.97;;
65053;SDS011;51639;47.828;35.038;2024-03-02T05:33:04;25.07;;;10.50;;
65053;SDS011;51639;47.828;35.038;2024-03-02T05:48:07;23.60;;;11.13;;
65053;SDS011;51639;47.828;35.038;2024-03-02T06:03:11;23.47;;;9.40;;
65053;SDS011;51639;47.828;35.038;2024-03-02T06:18:13;23.07;;;10.20;;
65053;SDS011;51639;47.828;35.038;2024-03-02T06:33:16;18.53;;;9.07;;
65053;SDS011;51639;47.828;35.038;2024-03-02T06:48:46;24.77;;;9.63;;
65053;SDS011;51639;47.828;35.038;2024-03-02T07:03:48;16.93;;;6.67;;
65053;SDS011;51639;47.828;35.038;2024-03-02T07:18:51;16.03;;;6.77;;
65053;SDS011;51639;47.828;35.038;2024-03-02T07:33:58;26.20;;;6.77;;
65053;SDS011;51639;47.828;35.038;2024-03-02T07:49:02;34.67;;;9.70;;
65053;SDS011;51639;47.828;35.038;2024-03-02T08:04:04;24.67;;;7.97;;
65053;SDS011;51639;47.828;35.038;2024-03-02T08:19:09;19.03;;;7.00;;
65053;SDS011;51639;47.828;35.038;2024-03-02T08:34:11;28.03;;;9.17;;
65053;SDS011;51639;47.828;35.038;2024-03-02T08:49:14;22.83;;;7.70;;
65053;SDS011;51639;47.828;35.038;2024-03-02T09:04:18;15.77;;;7.20;;
65053;SDS011;51639;47.828;35.038;2024-03-02T09:19:24;19.67;;;6.73;;
65053;SDS011;51639;47.828;35.038;2024-03-02T09:34:26;24.10;;;7.20;;
65053;SDS011;51639;47.828;35.038;2024-03-02T09:49:29;15.37;;;5.40;;
65053;SDS011;51639;47.828;35.038;2024-03-02T10:04:31;11.33;;;6.23;;
65053;SDS011;51639;47.828;35.038;2024-03-02T10:19:37;24.33;;;7.33;;
65053;SDS011;51639;47.828;35.038;2024-03-02T10:34:41;14.93;;;5.90;;
65053;SDS011;51639;47.828;35.038;2024-03-02T10:49:46;24.07;;;6.90;;
65053;SDS011;51639;47.828;35.038;2024-03-02T11:04:51;15.00;;;6.47;;
65053;SDS011;51639;47.828;35.038;2024-03-02T11:19:57;18.50;;;6.93;;
65053;SDS011;51639;47.828;35.038;2024-03-02T11:35:00;18.47;;;7.37;;
65053;SDS011;51639;47.828;35.038;2024-03-02T11:50:04;24.53;;;8.57;;
65053;SDS011;51639;47.828;35.038;2024-03-02T12:05:08;17.00;;;8.37;;
65053;SDS011;51639;47.828;35.038;2024-03-02T12:20:11;25.60;;;8.90;;
65053;SDS011;51639;47.828;35.038;2024-03-02T12:35:20;23.63;;;8.60;;
65053;SDS011;51639;47.828;35.038;2024-03-02T12:50:22;18.93;;;7.93;;
65053;SDS011;51639;47.828;35.038;2024-03-02T13:05:24;17.30;;;7.33;;
65053;SDS011;51639;47.828;35.038;2024-03-02T13:20:31;19.13;;;7.95;;
65053;SDS011;51639;47.828;35.038;2024-03-02T13:35:37;17.10;;;8.23;;
65053;SDS011;51639;47.828;35.038;2024-03-02T13:50:39;22.30;;;8.77;;
65053;SDS011;51639;47.828;35.038;2024-03-02T14:05:41;24.03;;;10.67;;
65053;SDS011;51639;47.828;35.038;2024-03-02T14:20:44;36.00;;;12.33;;
65053;SDS011;51639;47.828;35.038;2024-03-02T14:35:48;25.20;;;11.90;;
65053;SDS011;51639;47.828;35.038;2024-03-02T14:50:50;24.10;;;10.53;;
65053;SDS011;51639;47.828;35.038;2024-03-02T15:05:53;24.67;;;10.03;;
65053;SDS011;51639;47.828;35.038;2024-03-02T15:20:55;26.97;;;11.37;;
65053;SDS011;51639;47.828;35.038;2024-03-02T15:36:00;29.30;;;12.03;;
65053;SDS011;51639;47.828;35.038;2024-03-02T15:51:03;22.73;;;12.23;;
65053;SDS011;51639;47.828;35.038;2024-03-02T16:06:11;32.07;;;15.27;;
65053;SDS011;51639;47.828;35.038;2024-03-02T16:21:13;24.27;;;12.20;;
65053;SDS011;51639;47.828;35.038;2024-03-02T16:36:15;23.27;;;10.10;;
65053;SDS011;51639;47.828;35.038;2024-03-02T16:51:19;21.60;;;10.57;;
65053;SDS011;51639;47.828;35.038;2024-03-02T17:06:29;19.43;;;10.37;;
65053;SDS011;51639;47.828;35.038;2024-03-02T17:21:32;19.83;;;9.97;;
65053;SDS011;51639;47.828;35.038;2024-03-02T17:36:39;27.77;;;13.80;;
65053;SDS011;51639;47.828;35.038;2024-03-02T17:51:46;31.00;;;15.20;;
65053;SDS011;51639;47.828;35.038;2024-03-02T18:06:52;34.70;;;13.90;;
65053;SDS011;51639;47.828;35.038;2024-03-02T18:22:00;28.13;;;14.83;;
65053;SDS011;51639;47.828;35.038;2024-03-02T18:37:05;29.93;;;13.67;;
65053;SDS011;51639;47.828;35.038;2024-03-02T18:52:07;28.27;;;13.47;;
65053;SDS011;51639;47.828;35.038;2024-03-02T19:07:09;34.70;;;13.63;;
65053;SDS011;51639;47.828;35.038;2024-03-02T19:22:12;38.93;;;15.13;;
65053;SDS011;51639;47.828;35.038;2024-03-02T19:37:14;40.17;;;15.70;;
65053;SDS011;51639;47.828;35.038;2024-03-02T19:52:16;36.37;;;15.93;;
65053;SDS011;51639;47.828;35.038;2024-03-02T20:07:18;36.23;;;16.40;;
65053;SDS011;51639;47.828;35.038;2024-03-02T20:22:21;36.17;;;15.67;;
65053;SDS011;51639;47.828;35.038;2024-03-02T20:37:23;37.17;;;15.23;;
65053;SDS011;51639;47.828;35.038;2024-03-02T20:52:25;37.47;;;16.17;;
65053;SDS011;51639;47.828;35.038;2024-03-02T21:07:27;34.07;;;15.07;;
65053;SDS011;51639;47.828;35.038;2024-03-02T21:22:29;30.53;;;15.07;;
65053;SDS011;51639;47.828;35.038;2024-03-02T21:37:32;38.67;;;15.30;;
65053;SDS011;51639;47.828;35.038;2024-03-02T21:52:34;39.93;;;16.03;;
65053;SDS011;51639;47.828;35.038;2024-03-02T22:07:35;40.83;;;16.43;;
65053;SDS011;51639;47.828;35.038;2024-03-02T22:22:38;35.77;;;14.50;;
65053;SDS011;51639;47.828;35.038;2024-03-02T22:37:44;37.07;;;14.23;;
65053;SDS011;51639;47.828;35.038;2024-03-02T22:52:46;27.37;;;10.27;;
65053;SDS011;51639;47.828;35.038;2024-03-02T23:07:51;18.47;;;7.00;;
65053;SDS011;51639;47.828;35.038;2024-03-02T23:22:53;19.07;;;6.23;;
65053;SDS011;51639;47.828;35.038;2024-03-02T23:37:56;18.00;;;4.00;;
65053;SDS011;51639;47.828;35.038;2024-03-02T23:52:58;11.97;;;3.67;;
